»·PEaware :: AAL1969 KSAN-KSFO

AAL1969 :: KSAN-KSFO

FLIGHT INFORMATION

Flight Status: Arrived
Operator:
American Airlines
More flights by this operator :: More flights under this callsign
Pilot: Ben F. (2808)
Aircraft: MCDONNELL-DOUGLAS MD-82
(MD82)
More flights by this aircraft type
Origin: KSAN San Diego Intl-Lindbergh
United States
Destination: KSFO San Francisco Intl
United States
More flights between these airports :: More routes between these airports
Route: +PADRZ2 IKAYE RIZIN SPLNT STOKD SERFR SERFR3
File this flight plan on PilotEdge
Remarks:
Altitude:
(Current/Filed)
32,000ft
Speed:
(Current/Filed)
442kts
Departed: 29-Apr-18 09:50 AM
Arrived: 29-Apr-18 11:09 AM
Distance/Time
Traveled:
388nm/1:18
Distance/Time
To Go:
Arrived

Flight Plot

Page will automatically refresh every two minutes.

Flight plan parsing failed; only flown route is shown


Map Options




Map Legend


Flown Route
Filed Route
Departure Airport
Arrival Airport
Navaid (VOR, NDB)
Fix

Horizontal Profiles

Position Reports

Time Latitude Longitude Heading Altitude Ground
Speed
29-Apr-18 09:18 32.734088 -117.201825 177 24ft 0kts
29-Apr-18 09:20 32.734088 -117.201825 177 24ft 0kts
29-Apr-18 09:21 32.734088 -117.201825 177 24ft 0kts
29-Apr-18 09:22 32.734088 -117.201825 177 24ft 0kts
29-Apr-18 09:24 32.734088 -117.201825 177 24ft 0kts
29-Apr-18 09:25 32.734088 -117.201825 177 24ft 0kts
29-Apr-18 09:26 32.734088 -117.201825 177 24ft 0kts
29-Apr-18 09:26 32.734088 -117.201825 177 24ft 0kts
29-Apr-18 09:27 32.734088 -117.201825 177 24ft 0kts
29-Apr-18 09:28 32.734088 -117.201825 177 24ft 0kts
29-Apr-18 09:29 32.734088 -117.201825 177 24ft 0kts
29-Apr-18 09:30 32.734088 -117.201825 177 24ft 0kts
29-Apr-18 09:31 32.734088 -117.201825 177 24ft 0kts
29-Apr-18 09:32 32.734088 -117.201825 177 24ft 0kts
29-Apr-18 09:34 32.734088 -117.201825 177 24ft 0kts
29-Apr-18 09:34 32.734088 -117.201825 177 24ft 0kts
29-Apr-18 09:35 32.734088 -117.201825 177 24ft 0kts
29-Apr-18 09:36 32.734088 -117.201825 177 24ft 0kts
29-Apr-18 09:37 32.734088 -117.201825 177 24ft 0kts
29-Apr-18 09:38 32.734088 -117.201825 177 24ft 0kts
29-Apr-18 09:39 32.734462 -117.201870 176 24ft 2kts
29-Apr-18 09:40 32.735094 -117.201786 178 24ft 2kts
29-Apr-18 09:41 32.735546 -117.202099 105 24ft 2kts
29-Apr-18 09:42 32.735633 -117.202398 116 24ft 0kts
29-Apr-18 09:43 32.735632 -117.202395 116 24ft 0kts
29-Apr-18 09:44 32.735052 -117.200108 105 24ft 16kts
29-Apr-18 09:45 32.733936 -117.195531 104 24ft 18kts
29-Apr-18 09:46 32.732506 -117.189656 104 24ft 16kts
29-Apr-18 09:47 32.730830 -117.182697 105 24ft 25kts
29-Apr-18 09:48 32.729804 -117.175954 45 24ft 13kts
29-Apr-18 09:49 32.731859 -117.182684 285 24ft 97kts
29-Apr-18 09:50 32.744804 -117.229961 285 1414ft 176kts
29-Apr-18 09:51 32.780747 -117.287695 306 3376ft 247kts
29-Apr-18 09:52 32.823084 -117.353935 307 6689ft 259kts
29-Apr-18 09:53 32.868105 -117.423435 306 9851ft 269kts
29-Apr-18 09:54 32.917973 -117.500868 305 11860ft 313kts
29-Apr-18 09:55 32.971910 -117.584019 304 14495ft 323kts
29-Apr-18 09:56 33.027019 -117.670483 304 16824ft 331kts
29-Apr-18 09:57 33.088489 -117.754248 313 18885ft 345kts
29-Apr-18 09:58 33.164199 -117.830309 315 20501ft 361kts
29-Apr-18 09:59 33.239160 -117.912004 310 22067ft 369kts
29-Apr-18 10:00 33.311767 -118.000423 310 23487ft 377kts
29-Apr-18 10:01 33.386821 -118.089856 310 24839ft 383kts
29-Apr-18 10:02 33.462626 -118.180641 310 26072ft 388kts
29-Apr-18 10:03 33.539204 -118.272816 311 27178ft 393kts
29-Apr-18 10:04 33.617148 -118.366149 311 28134ft 397kts
29-Apr-18 10:05 33.695362 -118.460457 311 29046ft 399kts
29-Apr-18 10:06 33.773165 -118.554751 311 30168ft 394kts
29-Apr-18 10:07 33.849379 -118.647536 312 31362ft 386kts
29-Apr-18 10:08 33.924743 -118.738884 312 32078ft 389kts
29-Apr-18 10:09 34.001900 -118.833163 311 32081ft 391kts
29-Apr-18 10:10 34.078166 -118.925984 310 32084ft 389kts
29-Apr-18 10:11 34.152167 -119.020658 304 32086ft 386kts
29-Apr-18 10:12 34.207898 -119.130746 297 32085ft 382kts
29-Apr-18 10:13 34.263903 -119.240158 299 32083ft 382kts
29-Apr-18 10:14 34.320198 -119.349906 299 32084ft 383kts
29-Apr-18 10:15 34.376252 -119.459439 299 32087ft 383kts
29-Apr-18 10:16 34.439414 -119.563691 309 32092ft 387kts
29-Apr-18 10:17 34.515577 -119.656792 310 32093ft 387kts
29-Apr-18 10:18 34.591452 -119.749773 310 32095ft 387kts
29-Apr-18 10:19 34.666863 -119.842892 310 32099ft 387kts
29-Apr-18 10:20 34.742355 -119.936016 309 32103ft 385kts
29-Apr-18 10:21 34.817120 -120.028746 310 32106ft 382kts
29-Apr-18 10:22 34.890946 -120.120699 309 32117ft 379kts
29-Apr-18 10:23 34.964417 -120.212647 309 32120ft 377kts
29-Apr-18 10:24 35.037607 -120.303695 309 32123ft 375kts
29-Apr-18 10:25 35.112090 -120.393236 311 32126ft 375kts
29-Apr-18 10:26 35.188534 -120.479529 311 32131ft 374kts
29-Apr-18 10:27 35.264961 -120.565292 311 32132ft 372kts
29-Apr-18 10:28 35.341298 -120.651315 311 32133ft 371kts
29-Apr-18 10:29 35.417248 -120.736855 311 32136ft 370kts
29-Apr-18 10:30 35.493839 -120.820959 315 32140ft 372kts
29-Apr-18 10:31 35.576718 -120.897912 316 32141ft 372kts
29-Apr-18 10:32 35.659494 -120.974177 316 32142ft 371kts
29-Apr-18 10:33 35.741647 -121.050562 316 32146ft 369kts
29-Apr-18 10:34 35.823567 -121.127373 316 32148ft 369kts
29-Apr-18 10:35 35.905629 -121.202824 316 32151ft 366kts
29-Apr-18 10:36 35.986815 -121.279384 315 32156ft 365kts
29-Apr-18 10:37 36.067424 -121.355258 317 32161ft 365kts
29-Apr-18 10:38 36.154001 -121.423450 320 32167ft 368kts
29-Apr-18 10:39 36.240331 -121.490412 319 32113ft 357kts
29-Apr-18 10:40 36.324586 -121.556225 319 29758ft 363kts
29-Apr-18 10:41 36.409259 -121.622932 318 27096ft 353kts
29-Apr-18 10:42 36.490359 -121.687298 318 25673ft 337kts
29-Apr-18 10:43 36.570788 -121.750652 318 23318ft 333kts
29-Apr-18 10:44 36.645418 -121.810528 320 21001ft 329kts
29-Apr-18 10:45 36.720629 -121.870933 322 18727ft 316kts
29-Apr-18 10:46 36.805576 -121.908718 341 17417ft 325kts
29-Apr-18 10:47 36.891790 -121.931380 342 15301ft 320kts
29-Apr-18 10:48 36.976076 -121.955800 339 14537ft 316kts
29-Apr-18 10:49 37.057992 -121.988063 338 12569ft 297kts
29-Apr-18 10:50 37.135370 -122.018844 339 10763ft 300kts
29-Apr-18 10:51 37.206924 -122.047137 339 9872ft 248kts
29-Apr-18 10:52 37.274107 -122.073589 340 8173ft 243kts
29-Apr-18 10:53 37.341638 -122.100088 340 6098ft 243kts
29-Apr-18 10:54 37.406474 -122.124374 342 5644ft 235kts
29-Apr-18 10:55 37.471404 -122.142770 348 4557ft 247kts
29-Apr-18 10:56 37.535858 -122.161927 310 2976ft 215kts
29-Apr-18 10:57 37.556833 -122.219764 297 2987ft 154kts
29-Apr-18 10:58 37.575426 -122.265893 294 2649ft 138kts
29-Apr-18 10:59 37.590521 -122.313479 311 1395ft 151kts
29-Apr-18 11:00 37.613622 -122.362555 297 370ft 192kts
29-Apr-18 11:01 37.630022 -122.420066 236 1151ft 192kts
29-Apr-18 11:02 37.591895 -122.380197 121 1240ft 224kts
29-Apr-18 11:03 37.558698 -122.313572 122 1457ft 232kts
29-Apr-18 11:04 37.548490 -122.247295 31 1442ft 207kts
29-Apr-18 11:05 37.581874 -122.284680 296 1230ft 170kts
29-Apr-18 11:06 37.601232 -122.332970 294 441ft 140kts
29-Apr-18 11:07 37.617799 -122.373062 299 22ft 73kts
29-Apr-18 11:08 37.619000 -122.380267 287 22ft 15kts
29-Apr-18 11:09 37.618384 -122.382045 138 22ft 0kts
29-Apr-18 11:10 37.618382 -122.382043 138 22ft 0kts

Navigation Log

Ident Type
Flight plan parsing failed, navigation log unavailable